Time;durP1;ratioP1;P1;durP2;ratioP2;P2;SDS_P1;SDS_P2;PMS_P1;PMS_P2;Temp;Humidity;BMP_temperature;BMP_pressure;BME280_temperature;BME280_humidity;BME280_pressure;Samples;Min_cycle;Max_cycle;Signal;HPM_P1;HPM_P2
2022/09/16 00:01:18;;;;;;;6.28;0.95;;;13.00;99.90;;;;;;4968465;28;20034;-74
2022/09/16 00:03:44;;;;;;;2.45;0.20;;;13.00;99.90;;;;;;4963062;28;20058;-74
2022/09/16 00:06:22;;;;;;;7.43;0.28;;;13.00;99.90;;;;;;4956890;28;20034;-74
2022/09/16 00:08:48;;;;;;;4.45;0.30;;;13.00;99.90;;;;;;4950829;28;20487;-74
2022/09/16 00:11:14;;;;;;;7.47;0.47;;;13.00;99.90;;;;;;4973663;28;20387;-74
2022/09/16 00:13:40;;;;;;;4.25;0.20;;;13.00;99.90;;;;;;4970165;28;20033;-74
2022/09/16 00:16:08;;;;;;;3.97;0.30;;;13.00;99.90;;;;;;4970374;28;20031;-74
2022/09/16 00:18:34;;;;;;;2.35;0.22;;;12.90;99.90;;;;;;4953691;28;20519;-74
2022/09/16 00:20:59;;;;;;;5.78;0.25;;;12.90;99.90;;;;;;4969190;28;20034;-74
2022/09/16 00:23:25;;;;;;;2.45;0.30;;;13.00;99.90;;;;;;4967409;28;20037;-75
2022/09/16 00:25:51;;;;;;;4.75;0.43;;;12.90;99.90;;;;;;4971085;28;20034;-75
2022/09/16 00:28:18;;;;;;;2.72;0.30;;;12.90;99.90;;;;;;4970492;28;20073;-74
2022/09/16 00:30:43;;;;;;;2.78;0.55;;;13.00;99.90;;;;;;4969207;28;20533;-75
2022/09/16 00:33:09;;;;;;;3.72;0.50;;;12.90;99.90;;;;;;4968919;28;20043;-74
2022/09/16 00:35:35;;;;;;;5.03;0.22;;;12.90;99.90;;;;;;4966285;28;21498;-74
2022/09/16 00:38:00;;;;;;;3.70;1.20;;;12.90;99.90;;;;;;4968761;28;20030;-74
2022/09/16 00:40:26;;;;;;;3.20;0.20;;;12.90;99.90;;;;;;4969013;28;20383;-74
2022/09/16 00:42:52;;;;;;;5.75;0.30;;;13.00;99.90;;;;;;4968434;28;20029;-74
2022/09/16 00:45:21;;;;;;;3.45;0.20;;;12.90;99.90;;;;;;4968580;28;20022;-74
2022/09/16 00:47:53;;;;;;;4.40;0.25;;;13.00;99.90;;;;;;4968530;28;20070;-74
2022/09/16 00:50:26;;;;;;;4.63;0.45;;;12.90;99.90;;;;;;4972949;28;20402;-74
2022/09/16 00:52:54;;;;;;;4.20;0.30;;;12.90;99.90;;;;;;4968458;28;20038;-74
2022/09/16 00:55:27;;;;;;;3.00;0.30;;;12.90;99.90;;;;;;4971182;28;20068;-74
2022/09/16 00:57:56;;;;;;;1.55;0.30;;;12.80;99.90;;;;;;4970401;28;20023;-74
2022/09/16 01:00:21;;;;;;;3.00;0.35;;;12.80;99.90;;;;;;4968507;28;20027;-74
2022/09/16 01:02:49;;;;;;;5.70;0.32;;;12.80;99.90;;;;;;4968842;28;20034;-74
2022/09/16 01:05:19;;;;;;;3.17;0.30;;;12.80;99.90;;;;;;4971229;28;20106;-74
2022/09/16 01:07:47;;;;;;;4.60;0.40;;;12.80;99.90;;;;;;4973310;28;20030;-74
2022/09/16 01:10:16;;;;;;;5.70;0.40;;;12.80;99.90;;;;;;4968904;28;20046;-73
2022/09/16 01:12:45;;;;;;;5.13;0.85;;;12.80;99.90;;;;;;4969816;28;20114;-74
2022/09/16 01:15:12;;;;;;;3.83;0.43;;;12.80;99.90;;;;;;4967101;28;20483;-74
2022/09/16 01:18:10;;;;;;;6.55;1.00;;;12.80;99.90;;;;;;4967842;28;20126;-74
2022/09/16 01:20:56;;;;;;;5.97;0.80;;;12.80;99.90;;;;;;4967816;28;20440;-74
2022/09/16 01:23:33;;;;;;;7.47;0.98;;;12.80;99.90;;;;;;4967438;28;20644;-74
2022/09/16 01:26:38;;;;;;;5.35;1.23;;;12.80;99.90;;;;;;4974299;28;20049;-74
2022/09/16 01:29:19;;;;;;;4.97;0.70;;;12.70;99.90;;;;;;4966166;28;20434;-74
2022/09/16 01:32:12;;;;;;;7.38;0.60;;;12.70;99.90;;;;;;4970150;28;20042;-74
2022/09/16 01:35:10;;;;;;;4.20;0.50;;;12.70;99.90;;;;;;4966929;28;20043;-74
2022/09/16 01:37:47;;;;;;;3.80;0.50;;;12.60;99.90;;;;;;4950462;28;20063;-74
2022/09/16 01:40:29;;;;;;;2.28;0.40;;;12.60;99.90;;;;;;4968670;28;20034;-74
2022/09/16 01:43:13;;;;;;;5.20;0.50;;;12.60;99.90;;;;;;4964954;28;20058;-74
2022/09/16 01:45:47;;;;;;;4.47;0.60;;;12.60;99.90;;;;;;4968957;28;20159;-74
2022/09/16 01:48:26;;;;;;;2.15;0.45;;;12.60;99.90;;;;;;4965550;28;20395;-75
2022/09/16 01:51:00;;;;;;;4.75;0.50;;;12.60;99.90;;;;;;4967954;28;20054;-74
2022/09/16 01:53:35;;;;;;;4.55;0.52;;;12.60;99.90;;;;;;4967379;28;20035;-74
2022/09/16 01:56:20;;;;;;;4.50;0.73;;;12.50;99.90;;;;;;4966805;28;20031;-74
2022/09/16 01:58:50;;;;;;;3.60;0.50;;;12.50;99.90;;;;;;4966538;28;20055;-74
2022/09/16 02:01:28;;;;;;;4.60;0.63;;;12.60;99.90;;;;;;4966636;28;20023;-74
2022/09/16 02:04:00;;;;;;;3.72;0.60;;;12.60;99.90;;;;;;4968419;28;20387;-74
2022/09/16 02:06:28;;;;;;;3.73;0.60;;;12.50;99.90;;;;;;4967545;28;20081;-74
2022/09/16 02:08:58;;;;;;;8.25;0.77;;;12.50;99.90;;;;;;4966208;28;20332;-74
2022/09/16 02:11:24;;;;;;;3.08;0.63;;;12.40;99.90;;;;;;4967014;28;20041;-74
2022/09/16 02:13:56;;;;;;;4.72;0.70;;;12.40;99.90;;;;;;4963816;28;20423;-74
2022/09/16 02:16:31;;;;;;;4.10;0.50;;;12.40;99.90;;;;;;4967368;28;20034;-74
2022/09/16 02:19:01;;;;;;;6.75;1.05;;;12.30;99.90;;;;;;4967332;28;20030;-74
2022/09/16 02:21:30;;;;;;;5.97;0.60;;;12.30;99.90;;;;;;4968117;28;20035;-74
2022/09/16 02:24:01;;;;;;;3.67;0.40;;;12.30;99.90;;;;;;4962883;28;20101;-74
2022/09/16 02:26:29;;;;;;;8.10;1.33;;;12.30;99.90;;;;;;4965717;28;20126;-74
2022/09/16 02:28:56;;;;;;;3.58;0.77;;;12.30;99.90;;;;;;4966214;28;20065;-74
2022/09/16 02:31:29;;;;;;;5.55;0.73;;;12.40;99.90;;;;;;4969818;28;20882;-74
2022/09/16 02:34:04;;;;;;;3.28;0.47;;;12.40;99.90;;;;;;4970768;28;21843;-74
2022/09/16 02:36:31;;;;;;;3.67;0.40;;;12.40;99.90;;;;;;4970453;28;20059;-74
2022/09/16 02:39:03;;;;;;;6.57;0.50;;;12.40;99.90;;;;;;4966430;28;20058;-74
2022/09/16 02:41:29;;;;;;;4.05;0.38;;;12.40;99.90;;;;;;4969746;28;20122;-74
2022/09/16 02:43:54;;;;;;;6.28;0.75;;;12.40;99.90;;;;;;4967217;28;20040;-74
2022/09/16 02:46:38;;;;;;;6.25;0.80;;;12.50;99.90;;;;;;4967234;28;20027;-74
2022/09/16 02:49:24;;;;;;;5.20;0.40;;;12.50;99.90;;;;;;4967552;28;20054;-74
2022/09/16 02:52:09;;;;;;;4.90;0.52;;;12.40;99.90;;;;;;4967341;28;20050;-74
2022/09/16 02:54:59;;;;;;;2.58;0.40;;;12.40;99.90;;;;;;4963110;28;20046;-75
2022/09/16 02:57:24;;;;;;;3.63;0.30;;;12.40;99.90;;;;;;4964742;28;20058;-74
2022/09/16 02:59:50;;;;;;;6.65;0.32;;;12.30;99.90;;;;;;4965096;28;20065;-74
2022/09/16 03:02:16;;;;;;;3.38;0.47;;;12.30;99.90;;;;;;4958742;28;20046;-74
2022/09/16 03:04:41;;;;;;;8.20;0.63;;;12.20;99.90;;;;;;4967819;28;20452;-74
2022/09/16 03:07:09;;;;;;;6.10;0.50;;;12.20;99.90;;;;;;4973197;28;20035;-74
2022/09/16 03:09:37;;;;;;;8.35;0.60;;;12.20;99.90;;;;;;4969365;28;20114;-74
2022/09/16 03:12:49;;;;;;;10.05;1.20;;;12.20;99.90;;;;;;4969971;28;20486;-74
2022/09/16 03:16:00;;;;;;;6.80;1.00;;;12.30;99.90;;;;;;4968489;28;20500;-74
2022/09/16 03:18:35;;;;;;;5.22;1.10;;;12.20;99.90;;;;;;4968016;28;20522;-74
2022/09/16 03:21:21;;;;;;;5.82;0.90;;;12.20;99.90;;;;;;4967439;28;20069;-74
2022/09/16 03:24:11;;;;;;;11.80;1.48;;;12.30;99.90;;;;;;4970528;28;20030;-74
2022/09/16 03:27:02;;;;;;;6.85;1.20;;;12.30;99.90;;;;;;4969292;28;20051;-74
2022/09/16 03:29:43;;;;;;;7.13;1.63;;;12.20;99.90;;;;;;4954946;28;20038;-74
2022/09/16 03:32:22;;;;;;;11.27;1.20;;;12.30;99.90;;;;;;4955074;28;20027;-74
2022/09/16 03:35:30;;;;;;;8.90;1.00;;;12.20;99.90;;;;;;4968408;28;20515;-74
2022/09/16 03:37:58;;;;;;;11.88;1.48;;;12.20;99.90;;;;;;4934546;28;20114;-74
2022/09/16 03:40:25;;;;;;;6.25;1.33;;;12.20;99.90;;;;;;4970239;28;20033;-74
2022/09/16 03:42:50;;;;;;;6.95;1.50;;;12.20;99.90;;;;;;4969951;28;20030;-74
2022/09/16 03:45:19;;;;;;;5.43;1.17;;;12.20;99.90;;;;;;4970431;28;20027;-74
2022/09/16 03:47:46;;;;;;;5.72;1.20;;;12.20;99.90;;;;;;4968411;28;20494;-74
2022/09/16 03:50:13;;;;;;;7.03;1.40;;;12.20;99.90;;;;;;4968696;28;21433;-74
2022/09/16 03:52:39;;;;;;;5.75;1.40;;;12.20;99.90;;;;;;4955202;28;20452;-74
2022/09/16 03:55:06;;;;;;;4.47;0.85;;;12.20;99.90;;;;;;4953775;28;20042;-74
2022/09/16 03:57:33;;;;;;;5.13;1.10;;;12.20;99.90;;;;;;4970779;28;20110;-74
2022/09/16 03:59:59;;;;;;;6.68;0.98;;;12.20;99.90;;;;;;4969305;28;20154;-74
2022/09/16 04:02:24;;;;;;;5.55;0.93;;;12.20;99.90;;;;;;4967503;28;20121;-74
2022/09/16 04:04:54;;;;;;;6.65;0.80;;;12.20;99.90;;;;;;4969329;28;20023;-74
2022/09/16 04:07:20;;;;;;;9.73;2.10;;;12.20;99.90;;;;;;4966469;28;20035;-74
2022/09/16 04:09:45;;;;;;;5.72;0.60;;;12.10;99.90;;;;;;4971387;28;20027;-74
2022/09/16 04:12:11;;;;;;;8.13;0.70;;;12.10;99.90;;;;;;4968941;28;20039;-74
2022/09/16 04:14:36;;;;;;;4.95;0.90;;;12.10;99.90;;;;;;4970853;28;20054;-74
2022/09/16 04:17:02;;;;;;;6.38;0.80;;;12.00;99.90;;;;;;4952385;28;20030;-74
2022/09/16 04:19:28;;;;;;;2.55;0.60;;;12.00;99.90;;;;;;4969155;28;20031;-74
2022/09/16 04:21:53;;;;;;;3.92;0.50;;;12.00;99.90;;;;;;4952824;28;20049;-74
2022/09/16 04:24:19;;;;;;;9.23;0.90;;;12.00;99.90;;;;;;4969259;28;20135;-74
2022/09/16 04:26:45;;;;;;;6.70;0.68;;;12.00;99.90;;;;;;4968564;28;20403;-74
2022/09/16 04:29:11;;;;;;;3.78;0.50;;;12.00;99.90;;;;;;4966011;28;20065;-74
2022/09/16 04:31:36;;;;;;;5.43;0.82;;;12.00;99.90;;;;;;4965497;28;20047;-74
2022/09/16 04:34:03;;;;;;;4.05;0.65;;;12.00;99.90;;;;;;4963488;28;20062;-74
2022/09/16 04:36:28;;;;;;;7.03;0.60;;;12.00;99.90;;;;;;4971834;28;20483;-74
2022/09/16 04:38:54;;;;;;;4.78;0.80;;;12.00;99.90;;;;;;4972652;28;20081;-74
2022/09/16 04:41:21;;;;;;;4.82;0.60;;;12.00;99.90;;;;;;4969743;28;20073;-74
2022/09/16 04:43:55;;;;;;;5.53;0.88;;;12.00;99.90;;;;;;4972601;28;20181;-74
2022/09/16 04:46:21;;;;;;;5.95;0.50;;;12.00;99.90;;;;;;4967959;28;20030;-74
2022/09/16 04:48:51;;;;;;;3.25;0.57;;;12.00;99.90;;;;;;4952756;28;20042;-74
2022/09/16 04:51:18;;;;;;;6.75;0.90;;;12.00;99.90;;;;;;4971234;28;20034;-74
2022/09/16 04:53:45;;;;;;;5.35;0.85;;;12.00;99.90;;;;;;4971414;28;20027;-74
2022/09/16 04:56:14;;;;;;;5.47;0.80;;;12.00;99.90;;;;;;4969002;28;20495;-74
2022/09/16 04:58:41;;;;;;;4.53;1.08;;;12.00;99.90;;;;;;4968841;28;20038;-74
2022/09/16 05:01:12;;;;;;;5.28;0.63;;;12.10;99.90;;;;;;4971070;28;20027;-74
2022/09/16 05:03:46;;;;;;;5.63;0.50;;;12.00;99.90;;;;;;4971136;28;20042;-74
2022/09/16 05:06:15;;;;;;;2.83;0.60;;;12.00;99.90;;;;;;4967287;28;20129;-74
2022/09/16 05:08:41;;;;;;;7.03;0.63;;;12.00;99.90;;;;;;4966892;28;20038;-74
2022/09/16 05:11:12;;;;;;;3.70;0.77;;;12.00;99.90;;;;;;4970979;28;20391;-74
2022/09/16 05:13:39;;;;;;;3.83;0.70;;;12.00;99.90;;;;;;4966909;28;20117;-74
2022/09/16 05:16:07;;;;;;;7.68;1.20;;;11.90;99.90;;;;;;4963853;28;20027;-75
2022/09/16 05:18:34;;;;;;;4.03;0.57;;;11.90;99.90;;;;;;4967706;28;20026;-74
2022/09/16 05:21:02;;;;;;;4.70;0.50;;;11.90;99.90;;;;;;4971050;28;20049;-74
2022/09/16 05:23:28;;;;;;;3.35;0.35;;;11.90;99.90;;;;;;4972113;28;20038;-74
2022/09/16 05:25:53;;;;;;;3.88;0.50;;;11.90;99.90;;;;;;4972710;28;20488;-75
2022/09/16 05:28:20;;;;;;;7.47;0.82;;;11.80;99.90;;;;;;4960939;28;20053;-74
2022/09/16 05:30:46;;;;;;;3.40;0.40;;;11.80;99.90;;;;;;4943686;28;20061;-75
2022/09/16 05:33:12;;;;;;;4.97;0.40;;;11.80;99.90;;;;;;4962932;28;20579;-75
2022/09/16 05:35:37;;;;;;;3.45;0.63;;;11.70;99.90;;;;;;4966614;28;20078;-75
2022/09/16 05:38:03;;;;;;;3.72;0.30;;;11.70;99.90;;;;;;4968870;28;20030;-75
2022/09/16 05:40:29;;;;;;;5.80;0.50;;;11.70;99.90;;;;;;4969222;28;20394;-75
2022/09/16 05:42:54;;;;;;;5.90;0.40;;;11.60;99.90;;;;;;4968559;28;20038;-75
2022/09/16 05:45:20;;;;;;;5.97;0.80;;;11.60;99.90;;;;;;4946378;28;20034;-74
2022/09/16 05:47:49;;;;;;;4.30;0.22;;;11.50;99.90;;;;;;4967651;28;20038;-75
2022/09/16 05:50:15;;;;;;;2.17;0.30;;;11.50;99.90;;;;;;4970595;28;20026;-75
2022/09/16 05:52:41;;;;;;;2.40;0.40;;;11.40;99.90;;;;;;4966198;28;20037;-75
2022/09/16 05:55:07;;;;;;;2.97;0.30;;;11.50;99.90;;;;;;4966148;28;20023;-74
2022/09/16 05:57:33;;;;;;;1.92;0.30;;;11.50;99.90;;;;;;4966658;28;20023;-75
2022/09/16 05:59:58;;;;;;;4.68;0.38;;;11.50;99.90;;;;;;4968635;28;20395;-74
2022/09/16 06:02:24;;;;;;;2.70;0.30;;;11.50;99.90;;;;;;4964780;28;20155;-75
2022/09/16 06:04:50;;;;;;;2.45;0.30;;;11.60;99.90;;;;;;4969043;28;20332;-75
2022/09/16 06:07:16;;;;;;;3.08;0.35;;;11.70;99.90;;;;;;4965793;28;20035;-75
2022/09/16 06:09:42;;;;;;;2.63;0.20;;;11.70;99.90;;;;;;4948537;28;20031;-75
2022/09/16 06:12:09;;;;;;;4.78;0.30;;;11.80;99.90;;;;;;4965375;28;20086;-75
2022/09/16 06:14:35;;;;;;;4.68;0.45;;;11.80;99.90;;;;;;4945735;28;20088;-74
2022/09/16 06:17:00;;;;;;;3.05;0.30;;;11.90;99.90;;;;;;4963318;28;20135;-75
2022/09/16 06:19:26;;;;;;;3.17;0.20;;;12.00;99.90;;;;;;4967926;28;20030;-75
2022/09/16 06:21:52;;;;;;;5.43;0.50;;;12.00;99.90;;;;;;4960140;28;20510;-75
2022/09/16 06:24:19;;;;;;;1.70;0.50;;;12.20;99.90;;;;;;4967404;28;20096;-75
2022/09/16 06:26:46;;;;;;;3.40;0.45;;;12.30;99.90;;;;;;4955293;28;20061;-74
2022/09/16 06:29:12;;;;;;;5.00;0.50;;;12.50;99.90;;;;;;4966719;28;20050;-74
2022/09/16 06:31:38;;;;;;;4.70;0.40;;;12.60;99.90;;;;;;4973679;28;20545;-74
2022/09/16 06:34:06;;;;;;;5.18;0.55;;;12.70;99.90;;;;;;4971389;28;20407;-74
2022/09/16 06:36:35;;;;;;;3.90;0.43;;;12.70;99.90;;;;;;4968008;28;20031;-74
2022/09/16 06:39:01;;;;;;;3.60;0.40;;;12.70;99.90;;;;;;4966373;28;20023;-73
2022/09/16 06:41:27;;;;;;;2.85;0.40;;;12.60;99.90;;;;;;4969389;28;20026;-74
2022/09/16 06:43:53;;;;;;;2.97;0.50;;;12.50;99.90;;;;;;4964204;28;20380;-74
2022/09/16 06:46:23;;;;;;;4.55;0.30;;;12.50;99.90;;;;;;4965627;28;20096;-74
2022/09/16 06:48:52;;;;;;;4.05;0.50;;;12.30;99.90;;;;;;4965236;28;20543;-74
2022/09/16 06:51:23;;;;;;;2.53;0.30;;;12.20;99.90;;;;;;4965922;28;20031;-74
2022/09/16 06:53:49;;;;;;;2.55;0.30;;;12.20;99.90;;;;;;4949962;28;20376;-74
2022/09/16 06:56:17;;;;;;;4.43;0.38;;;12.10;99.90;;;;;;4967887;28;20030;-74
2022/09/16 06:58:46;;;;;;;7.97;0.60;;;12.20;99.90;;;;;;4966334;28;20110;-74
2022/09/16 07:01:15;;;;;;;5.68;0.60;;;12.20;99.90;;;;;;4950118;28;20098;-74
2022/09/16 07:03:43;;;;;;;5.07;1.15;;;12.40;99.90;;;;;;4967097;28;20135;-74
2022/09/16 07:06:10;;;;;;;5.30;0.60;;;12.40;99.90;;;;;;4968314;28;20019;-74
2022/09/16 07:08:37;;;;;;;2.60;0.50;;;12.50;99.90;;;;;;4966322;28;20027;-74
2022/09/16 07:11:05;;;;;;;10.02;0.68;;;12.50;99.90;;;;;;4967256;28;20042;-74
2022/09/16 07:13:32;;;;;;;2.78;0.40;;;12.60;99.90;;;;;;4965822;28;20027;-74
2022/09/16 07:16:05;;;;;;;5.18;0.43;;;12.70;99.90;;;;;;4965886;28;20516;-74
2022/09/16 07:18:31;;;;;;;1.75;0.40;;;12.80;99.90;;;;;;4959519;28;20027;-74
2022/09/16 07:21:01;;;;;;;2.33;0.40;;;12.80;99.90;;;;;;4953420;28;20145;-75
2022/09/16 07:23:31;;;;;;;3.20;0.60;;;12.90;99.90;;;;;;4966227;28;20103;-74
2022/09/16 07:26:02;;;;;;;3.97;0.35;;;13.00;99.90;;;;;;4967532;28;20117;-74
2022/09/16 07:28:28;;;;;;;2.38;0.40;;;13.10;99.90;;;;;;4968376;28;20041;-74
2022/09/16 07:30:54;;;;;;;3.50;0.40;;;13.10;99.90;;;;;;4968326;28;20454;-74
2022/09/16 07:33:19;;;;;;;1.73;0.20;;;13.30;99.90;;;;;;4968425;28;20515;-74
2022/09/16 07:35:45;;;;;;;4.18;0.35;;;13.40;99.90;;;;;;4967402;28;20041;-74
2022/09/16 07:38:11;;;;;;;4.30;0.50;;;13.50;99.90;;;;;;4967706;28;20117;-74
2022/09/16 07:40:39;;;;;;;0.70;0.28;;;13.50;99.90;;;;;;4948275;28;20037;-74
2022/09/16 07:43:05;;;;;;;2.10;0.30;;;13.60;99.90;;;;;;4961416;28;20743;-74
2022/09/16 07:45:31;;;;;;;2.72;0.30;;;13.60;99.90;;;;;;4964197;28;20023;-75
2022/09/16 07:47:56;;;;;;;2.50;0.30;;;13.70;99.90;;;;;;4966016;28;20034;-74
2022/09/16 07:50:22;;;;;;;2.95;0.30;;;13.80;99.90;;;;;;4966471;28;20087;-74
2022/09/16 07:52:47;;;;;;;2.38;0.40;;;13.80;99.90;;;;;;4968491;28;20402;-74
2022/09/16 07:55:15;;;;;;;3.20;0.30;;;13.90;99.90;;;;;;4971042;28;20097;-74
2022/09/16 07:57:41;;;;;;;3.35;0.30;;;14.00;99.90;;;;;;4971306;28;20060;-74
2022/09/16 08:00:07;;;;;;;4.00;0.32;;;14.10;99.90;;;;;;4969353;28;20077;-74
2022/09/16 08:02:33;;;;;;;2.80;0.22;;;14.20;99.90;;;;;;4970451;28;20114;-74
2022/09/16 08:04:58;;;;;;;2.90;0.30;;;14.20;99.90;;;;;;4969933;28;20018;-74
2022/09/16 08:07:24;;;;;;;4.75;0.57;;;14.20;99.90;;;;;;4970582;28;20491;-74
2022/09/16 08:09:49;;;;;;;6.40;0.52;;;14.20;99.90;;;;;;4970419;28;20051;-74
2022/09/16 08:12:15;;;;;;;4.15;0.30;;;14.10;99.90;;;;;;4970077;28;20030;-75
2022/09/16 08:14:40;;;;;;;7.28;0.30;;;14.10;99.90;;;;;;4968641;28;20491;-74
2022/09/16 08:17:06;;;;;;;9.15;1.30;;;14.20;99.90;;;;;;4965798;28;20054;-74
2022/09/16 08:19:32;;;;;;;3.42;0.30;;;14.30;99.90;;;;;;4967254;28;20046;-74
2022/09/16 08:21:58;;;;;;;4.63;0.35;;;14.30;99.90;;;;;;4969978;28;20066;-74
2022/09/16 08:24:24;;;;;;;2.13;0.20;;;14.40;99.90;;;;;;4969383;28;20081;-74
2022/09/16 08:26:49;;;;;;;6.63;0.40;;;14.50;99.90;;;;;;4967319;28;20035;-74
2022/09/16 08:29:15;;;;;;;5.35;0.30;;;14.50;99.90;;;;;;4969802;28;20023;-74
2022/09/16 08:31:40;;;;;;;4.90;0.30;;;14.60;99.90;;;;;;4971342;28;20035;-74
2022/09/16 08:34:06;;;;;;;4.70;0.30;;;14.70;99.90;;;;;;4970665;28;20491;-74
2022/09/16 08:36:34;;;;;;;3.08;0.30;;;14.80;99.90;;;;;;4968512;28;20030;-75
2022/09/16 08:39:01;;;;;;;6.43;1.38;;;14.90;99.90;;;;;;4962319;28;20483;-74
2022/09/16 08:41:48;;;;;;;7.63;0.30;;;14.90;99.90;;;;;;4967760;28;20487;-74
2022/09/16 08:44:32;;;;;;;4.03;0.40;;;15.00;99.90;;;;;;4967573;28;20121;-74
2022/09/16 08:47:00;;;;;;;1.73;0.20;;;15.20;99.90;;;;;;4962551;28;20035;-74
2022/09/16 08:49:42;;;;;;;2.40;0.20;;;15.10;99.90;;;;;;4966400;28;20107;-75
2022/09/16 08:52:16;;;;;;;2.97;0.30;;;15.20;99.90;;;;;;4964836;28;20407;-74
2022/09/16 08:54:49;;;;;;;2.75;0.25;;;15.30;99.90;;;;;;4950491;28;20034;-74
2022/09/16 08:57:25;;;;;;;2.33;0.20;;;15.40;99.90;;;;;;4967114;28;20038;-74
2022/09/16 09:00:16;;;;;;;3.80;0.47;;;15.50;99.90;;;;;;4969954;28;20027;-75
2022/09/16 09:02:48;;;;;;;3.58;0.20;;;15.50;99.90;;;;;;4954884;28;20039;-74
2022/09/16 09:05:34;;;;;;;5.85;0.20;;;15.50;99.90;;;;;;4970232;28;20578;-74
2022/09/16 09:08:23;;;;;;;4.82;0.20;;;15.40;99.90;;;;;;4968243;28;20066;-74
2022/09/16 09:11:12;;;;;;;4.18;0.30;;;15.30;99.90;;;;;;4969889;28;20033;-73
2022/09/16 09:13:49;;;;;;;5.18;0.30;;;15.40;99.90;;;;;;4948680;28;20034;-74
2022/09/16 09:16:24;;;;;;;5.55;0.20;;;15.50;99.90;;;;;;4968456;28;20033;-74
2022/09/16 09:19:10;;;;;;;1.45;0.15;;;15.70;99.90;;;;;;4966723;28;20491;-74
2022/09/16 09:21:43;;;;;;;4.03;0.13;;;15.80;99.90;;;;;;4969051;28;20026;-74
2022/09/16 09:24:26;;;;;;;2.10;0.10;;;15.70;99.90;;;;;;4965210;28;20035;-74
2022/09/16 09:27:03;;;;;;;2.28;0.20;;;15.70;99.90;;;;;;4967932;28;20398;-73
2022/09/16 09:30:03;;;;;;;1.38;0.13;;;15.60;99.90;;;;;;4970266;28;20474;-73
2022/09/16 09:33:06;;;;;;;4.90;0.20;;;15.60;99.90;;;;;;4967772;28;20672;-73
2022/09/16 09:36:06;;;;;;;2.72;0.10;;;15.60;99.90;;;;;;4967792;28;20043;-73
2022/09/16 09:38:44;;;;;;;1.48;0.20;;;15.50;99.90;;;;;;4970213;28;20201;-73
2022/09/16 09:41:17;;;;;;;1.08;0.10;;;15.50;99.90;;;;;;4966964;28;20023;-73
2022/09/16 09:43:56;;;;;;;3.35;0.10;;;15.40;99.90;;;;;;4964928;28;20033;-73
2022/09/16 09:46:25;;;;;;;1.48;0.20;;;15.40;99.90;;;;;;4966330;28;20046;-73
2022/09/16 09:49:06;;;;;;;1.40;0.20;;;15.50;99.90;;;;;;4967546;28;20023;-74
2022/09/16 09:51:37;;;;;;;2.10;0.10;;;15.50;99.90;;;;;;4968293;28;20420;-73
2022/09/16 09:54:25;;;;;;;1.30;0.05;;;15.40;99.90;;;;;;4970518;28;20344;-74
2022/09/16 09:56:58;;;;;;;2.42;0.10;;;15.30;99.90;;;;;;4967410;28;20029;-73
2022/09/16 09:59:47;;;;;;;1.85;0.10;;;15.20;99.90;;;;;;4969541;28;20057;-74
2022/09/16 10:02:19;;;;;;;1.10;0.10;;;15.00;99.90;;;;;;4954145;28;20447;-73
2022/09/16 10:04:45;;;;;;;3.35;0.50;;;14.80;99.90;;;;;;4954516;28;20030;-74
2022/09/16 10:07:18;;;;;;;0.85;0.10;;;14.70;99.90;;;;;;4969301;28;20039;-73
2022/09/16 10:10:19;;;;;;;1.27;0.10;;;14.70;99.90;;;;;;4967732;28;20019;-74
2022/09/16 10:12:44;;;;;;;1.60;0.10;;;14.70;99.90;;;;;;4967596;28;20123;-74
2022/09/16 10:15:30;;;;;;;1.38;0.57;;;14.80;99.90;;;;;;4951562;28;20139;-74
2022/09/16 10:17:59;;;;;;;1.95;0.20;;;15.00;99.90;;;;;;4968908;28;20033;-74
2022/09/16 10:20:35;;;;;;;1.25;0.10;;;15.00;99.90;;;;;;4969494;28;20129;-74
2022/09/16 10:23:09;;;;;;;1.95;0.10;;;15.10;99.90;;;;;;4970568;28;20027;-74
2022/09/16 10:25:35;;;;;;;2.92;0.20;;;15.20;99.90;;;;;;4969591;28;20023;-74
2022/09/16 10:28:23;;;;;;;3.70;0.38;;;15.20;99.90;;;;;;4968123;28;20039;-74
2022/09/16 10:30:55;;;;;;;0.82;0.22;;;15.20;99.90;;;;;;4966082;28;20038;-73
2022/09/16 10:33:42;;;;;;;1.55;0.17;;;15.20;99.90;;;;;;4948720;28;20138;-73
2022/09/16 10:36:16;;;;;;;2.33;0.15;;;15.30;99.90;;;;;;4968245;28;20026;-73
2022/09/16 10:38:46;;;;;;;2.72;0.20;;;15.40;99.90;;;;;;4951733;28;20026;-74
2022/09/16 10:41:22;;;;;;;1.95;0.32;;;15.50;99.90;;;;;;4967806;28;20035;-74
2022/09/16 10:43:55;;;;;;;2.67;0.10;;;15.60;99.90;;;;;;4949365;28;20031;-74
2022/09/16 10:46:20;;;;;;;1.85;0.10;;;15.70;99.90;;;;;;4969063;28;20027;-74
2022/09/16 10:48:48;;;;;;;2.47;0.10;;;15.80;99.90;;;;;;4967489;28;20041;-73
2022/09/16 10:51:29;;;;;;;0.90;0.10;;;15.90;99.90;;;;;;4968571;28;20026;-73
2022/09/16 10:53:58;;;;;;;1.48;0.10;;;16.00;99.90;;;;;;4969266;28;20022;-74
2022/09/16 10:56:29;;;;;;;1.92;0.17;;;16.10;99.90;;;;;;4964790;28;20043;-74
2022/09/16 10:59:08;;;;;;;1.73;0.20;;;16.20;99.90;;;;;;4969143;28;20031;-74
2022/09/16 11:01:59;;;;;;;4.22;0.10;;;16.20;99.80;;;;;;4967906;28;20065;-74
2022/09/16 11:04:59;;;;;;;1.15;0.10;;;16.30;99.90;;;;;;4967064;28;20077;-74
2022/09/16 11:07:35;;;;;;;2.72;0.10;;;16.50;99.40;;;;;;4965609;28;20038;-74
2022/09/16 11:10:29;;;;;;;1.15;0.15;;;16.60;98.50;;;;;;4966213;28;20023;-74
2022/09/16 11:12:57;;;;;;;0.80;0.10;;;16.80;98.30;;;;;;4969122;28;20118;-74
2022/09/16 11:15:45;;;;;;;2.92;0.20;;;16.90;98.10;;;;;;4965594;28;20446;-74
2022/09/16 11:18:29;;;;;;;2.42;0.30;;;16.80;97.70;;;;;;4967552;28;20379;-74
2022/09/16 11:21:01;;;;;;;5.15;0.30;;;16.60;97.10;;;;;;4966312;28;20058;-74
2022/09/16 11:23:55;;;;;;;1.98;0.17;;;16.50;97.50;;;;;;4964242;28;20027;-73
2022/09/16 11:26:44;;;;;;;2.38;0.10;;;16.30;97.70;;;;;;4966860;28;20031;-74
2022/09/16 11:29:47;;;;;;;0.68;0.10;;;16.10;98.20;;;;;;4971203;28;20102;-74
2022/09/16 11:32:48;;;;;;;3.13;0.17;;;15.80;98.50;;;;;;4968705;28;20572;-74
2022/09/16 11:35:38;;;;;;;3.90;0.13;;;15.80;98.80;;;;;;4971264;28;20050;-74
2022/09/16 11:38:28;;;;;;;1.02;0.10;;;15.80;98.80;;;;;;4971161;28;20026;-73
2022/09/16 11:41:19;;;;;;;2.03;0.10;;;15.60;98.60;;;;;;4967122;28;20035;-74
2022/09/16 11:44:19;;;;;;;1.38;0.10;;;15.30;98.90;;;;;;4968200;28;20038;-74
2022/09/16 11:47:08;;;;;;;2.25;0.20;;;15.10;99.20;;;;;;4962183;28;20082;-74
2022/09/16 11:50:14;;;;;;;2.17;0.13;;;14.80;99.70;;;;;;4970009;28;20031;-74
2022/09/16 11:53:04;;;;;;;2.10;0.10;;;14.50;99.90;;;;;;4968454;28;20404;-74
2022/09/16 11:55:35;;;;;;;1.90;0.20;;;14.30;99.90;;;;;;4969002;28;20054;-74
2022/09/16 11:58:45;;;;;;;2.33;0.20;;;14.10;99.90;;;;;;4968633;28;20034;-74
2022/09/16 12:01:35;;;;;;;3.90;0.20;;;14.00;99.90;;;;;;4963852;28;20030;-74
2022/09/16 12:04:18;;;;;;;1.35;0.10;;;13.90;99.90;;;;;;4967002;28;20019;-74
2022/09/16 12:07:00;;;;;;;2.70;0.50;;;13.80;99.90;;;;;;4970721;28;20034;-74
2022/09/16 12:09:49;;;;;;;1.27;0.10;;;13.80;99.90;;;;;;4971649;28;20023;-74
2022/09/16 12:12:21;;;;;;;0.52;0.10;;;13.80;99.90;;;;;;4948451;28;20043;-75
2022/09/16 12:14:59;;;;;;;1.13;0.10;;;13.90;99.90;;;;;;4967255;28;20035;-74
2022/09/16 12:17:33;;;;;;;2.80;0.20;;;13.80;99.90;;;;;;4966978;28;20054;-75
2022/09/16 12:20:37;;;;;;;1.50;0.10;;;13.80;99.90;;;;;;4964770;28;20506;-75
2022/09/16 12:23:23;;;;;;;3.08;0.15;;;13.90;99.90;;;;;;4898181;29;20036;-75
2022/09/16 12:29:26;;;;;;;2.67;0.10;;;14.10;99.90;;;;;;4957586;23;20058;-91
2022/09/16 12:32:16;;;;;;;3.88;0.20;;;14.30;99.90;;;;;;4980766;28;20033;-91
2022/09/16 12:34:54;;;;;;;3.00;0.30;;;14.70;99.90;;;;;;4964628;28;20035;-89
2022/09/16 12:37:36;;;;;;;2.33;0.13;;;14.90;99.90;;;;;;4961842;28;20034;-91
2022/09/16 12:40:03;;;;;;;3.70;0.20;;;15.00;99.90;;;;;;4975626;28;20035;-89
2022/09/16 12:42:59;;;;;;;1.50;0.10;;;15.10;99.90;;;;;;4979711;28;20045;-91
2022/09/16 12:45:53;;;;;;;2.92;0.20;;;15.10;99.90;;;;;;4977639;28;20034;-89
2022/09/16 12:49:02;;;;;;;1.77;0.10;;;15.30;99.90;;;;;;4945842;28;20050;-90
2022/09/16 12:51:42;;;;;;;1.75;0.10;;;15.50;99.90;;;;;;4970576;28;20125;-89
2022/09/16 12:54:26;;;;;;;1.42;0.10;;;15.50;99.90;;;;;;4977894;28;20558;-91
2022/09/16 12:57:17;;;;;;;2.80;0.45;;;15.40;99.90;;;;;;4978782;28;20500;-90
2022/09/16 13:00:02;;;;;;;1.80;0.10;;;15.30;99.90;;;;;;4974811;28;20023;-91
2022/09/16 13:02:50;;;;;;;1.98;0.20;;;15.30;99.90;;;;;;4976762;28;20035;-89
2022/09/16 13:05:30;;;;;;;4.25;0.20;;;15.30;99.90;;;;;;4960165;28;20118;-92
2022/09/16 13:07:59;;;;;;;0.90;0.10;;;15.30;99.90;;;;;;4984523;28;20095;-87
2022/09/16 13:10:35;;;;;;;2.25;0.25;;;15.40;99.90;;;;;;4976896;28;20088;-90
2022/09/16 13:13:02;;;;;;;2.80;0.20;;;15.50;99.90;;;;;;4946565;28;20035;-89
2022/09/16 13:15:37;;;;;;;1.75;0.10;;;15.60;99.90;;;;;;4982247;28;20023;-91
2022/09/16 13:18:15;;;;;;;3.92;1.10;;;15.70;99.90;;;;;;4975005;28;20111;-91
2022/09/16 13:21:05;;;;;;;2.15;0.10;;;15.80;99.90;;;;;;4974715;28;20031;-90
2022/09/16 13:23:39;;;;;;;2.75;0.10;;;16.00;99.80;;;;;;4975298;28;20110;-91